createdAt,value
2022-09-10T00:02:12.337Z,65.44
2022-09-10T00:04:39.265Z,65.73
2022-09-10T00:07:06.153Z,65.30
2022-09-10T00:09:33.038Z,65.55
2022-09-10T00:11:59.899Z,65.53
2022-09-10T00:14:26.787Z,65.98
2022-09-10T00:16:54.829Z,65.91
2022-09-10T00:19:22.152Z,66.28
2022-09-10T00:21:50.670Z,66.02
2022-09-10T00:24:17.613Z,66.38
2022-09-10T00:26:45.667Z,66.49
2022-09-10T00:29:18.387Z,66.35
2022-09-10T00:31:45.445Z,66.26
2022-09-10T00:34:14.323Z,66.10
2022-09-10T00:36:43.902Z,66.65
2022-09-10T00:39:15.085Z,66.21
2022-09-10T00:41:44.632Z,66.29
2022-09-10T00:44:43.691Z,65.94
2022-09-10T00:47:22.367Z,65.81
2022-09-10T00:50:20.863Z,65.92
2022-09-10T00:52:49.565Z,65.29
2022-09-10T00:55:17.634Z,64.99
2022-09-10T00:57:47.661Z,64.60
2022-09-10T01:00:16.035Z,65.25
2022-09-10T01:02:43.254Z,64.70
2022-09-10T01:05:12.035Z,65.49
2022-09-10T01:07:39.897Z,64.89
2022-09-10T01:10:18.057Z,64.80
2022-09-10T01:13:03.415Z,64.56
2022-09-10T01:15:53.046Z,64.93
2022-09-10T01:19:02.351Z,64.64
2022-09-10T01:21:57.361Z,64.83
2022-09-10T01:25:00.685Z,65.13
2022-09-10T01:27:44.865Z,65.14
2022-09-10T01:30:25.056Z,64.73
2022-09-10T01:33:23.398Z,64.26
2022-09-10T01:36:01.778Z,64.51
2022-09-10T01:38:35.710Z,64.61
2022-09-10T01:41:04.572Z,64.03
2022-09-10T01:43:37.582Z,64.18
2022-09-10T01:46:21.458Z,64.61
2022-09-10T01:49:07.761Z,64.22
2022-09-10T01:51:40.394Z,64.47
2022-09-10T01:54:50.818Z,64.09
2022-09-10T01:57:52.928Z,64.00
2022-09-10T02:00:22.219Z,63.98
2022-09-10T02:03:01.691Z,64.15
2022-09-10T02:05:35.250Z,64.16
2022-09-10T02:08:13.943Z,64.42
2022-09-10T02:11:06.807Z,64.99
2022-09-10T02:13:36.830Z,64.55
2022-09-10T02:16:31.251Z,64.88
2022-09-10T02:19:00.683Z,64.63
2022-09-10T02:21:27.785Z,64.76
2022-09-10T02:24:05.966Z,64.34
2022-09-10T02:26:40.288Z,64.23
2022-09-10T02:29:08.716Z,64.73
2022-09-10T02:31:36.403Z,64.62
2022-09-10T02:34:03.580Z,64.52
2022-09-10T02:36:31.989Z,64.54
2022-09-10T02:39:00.433Z,64.00
2022-09-10T02:41:30.131Z,63.91
2022-09-10T02:43:57.551Z,64.20
2022-09-10T02:46:24.773Z,63.76
2022-09-10T02:48:55.212Z,64.27
2022-09-10T02:51:24.429Z,64.22
2022-09-10T02:53:51.823Z,63.97
2022-09-10T02:56:23.697Z,63.51
2022-09-10T02:58:51.062Z,63.84
2022-09-10T03:01:21.165Z,63.60
2022-09-10T03:03:58.162Z,63.52
2022-09-10T03:06:26.477Z,63.84
2022-09-10T03:08:57.654Z,64.05
2022-09-10T03:11:27.473Z,63.57
2022-09-10T03:13:55.785Z,64.12
2022-09-10T03:16:24.364Z,63.76
2022-09-10T03:18:52.258Z,63.64
2022-09-10T03:21:22.315Z,63.93
2022-09-10T03:23:51.245Z,63.60
2022-09-10T03:26:25.929Z,63.34
2022-09-10T03:28:54.077Z,63.79
2022-09-10T03:31:23.656Z,63.49
2022-09-10T03:33:51.449Z,63.60
2022-09-10T03:36:20.885Z,63.68
2022-09-10T03:38:49.408Z,64.01
2022-09-10T03:41:17.252Z,63.89
2022-09-10T03:43:44.970Z,63.86
2022-09-10T03:46:12.159Z,64.47
2022-09-10T03:48:43.605Z,63.79
2022-09-10T03:51:11.107Z,64.15
2022-09-10T03:53:39.239Z,64.00
2022-09-10T03:56:08.394Z,64.05
2022-09-10T03:58:35.877Z,64.34
2022-09-10T04:01:03.889Z,64.64
2022-09-10T04:03:33.367Z,64.95
2022-09-10T04:06:00.285Z,65.17
2022-09-10T04:08:27.225Z,64.85
2022-09-10T04:10:55.149Z,65.13
2022-09-10T04:13:23.048Z,65.25
2022-09-10T04:15:50.040Z,65.55
2022-09-10T04:18:17.125Z,65.15
2022-09-10T04:20:48.131Z,65.30
2022-09-10T04:23:16.430Z,65.39
2022-09-10T04:25:46.585Z,65.45
2022-09-10T04:28:13.672Z,65.65
2022-09-10T04:30:40.629Z,65.09
2022-09-10T04:33:09.469Z,65.47
2022-09-10T04:35:36.374Z,65.39
2022-09-10T04:38:07.150Z,64.97
2022-09-10T04:40:38.102Z,65.11
2022-09-10T04:43:05.031Z,65.23
2022-09-10T04:45:35.125Z,64.88
2022-09-10T04:48:06.722Z,64.98
2022-09-10T04:50:34.499Z,65.11
2022-09-10T04:53:12.256Z,64.91
2022-09-10T04:55:43.008Z,64.64
2022-09-10T04:58:10.652Z,64.78
2022-09-10T05:00:39.370Z,64.94
2022-09-10T05:03:07.187Z,64.50
2022-09-10T05:05:34.862Z,64.84
2022-09-10T05:08:08.140Z,64.64
2022-09-10T05:10:38.276Z,64.90
2022-09-10T05:13:07.264Z,65.05
2022-09-10T05:15:35.717Z,65.13
2022-09-10T05:18:04.538Z,65.12
2022-09-10T05:20:35.703Z,65.45
2022-09-10T05:23:02.616Z,65.27
2022-09-10T05:25:29.617Z,65.66
2022-09-10T05:27:58.374Z,65.73
2022-09-10T05:30:25.246Z,65.56
2022-09-10T05:32:53.271Z,65.68
2022-09-10T05:35:20.421Z,65.88
2022-09-10T05:37:48.639Z,65.87
2022-09-10T05:40:15.947Z,66.08
2022-09-10T05:42:44.234Z,66.34
2022-09-10T05:45:11.307Z,66.26
2022-09-10T05:47:38.266Z,66.24
2022-09-10T05:50:07.288Z,66.81
2022-09-10T05:52:35.127Z,66.80
2022-09-10T05:55:06.796Z,67.06
2022-09-10T05:57:33.680Z,67.35
2022-09-10T06:00:02.019Z,67.59
2022-09-10T06:02:30.546Z,67.88
2022-09-10T06:04:58.572Z,68.14
2022-09-10T06:07:28.212Z,68.23
2022-09-10T06:09:55.851Z,68.52
2022-09-10T06:12:35.410Z,68.30
2022-09-10T06:15:03.659Z,67.90
2022-09-10T06:17:30.591Z,68.17
2022-09-10T06:19:58.016Z,67.36
2022-09-10T06:22:25.075Z,67.34
2022-09-10T06:24:53.730Z,67.54
2022-09-10T06:27:23.227Z,67.21
2022-09-10T06:29:51.276Z,67.03
2022-09-10T06:32:18.259Z,66.70
2022-09-10T06:34:46.543Z,66.48
2022-09-10T06:37:13.440Z,66.78
2022-09-10T06:39:40.970Z,66.20
2022-09-10T06:42:08.131Z,66.54
2022-09-10T06:44:54.800Z,65.96
2022-09-10T06:48:25.456Z,65.84
2022-09-10T06:50:21.443Z,65.47
2022-09-10T06:52:50.220Z,65.47
2022-09-10T06:55:20.652Z,65.48
2022-09-10T06:57:47.617Z,65.68
2022-09-10T07:00:17.451Z,66.05
2022-09-10T07:02:50.452Z,65.54
2022-09-10T07:05:17.754Z,65.50
2022-09-10T07:07:46.356Z,64.89
2022-09-10T07:10:14.406Z,64.81
2022-09-10T07:12:41.913Z,65.22
2022-09-10T07:15:09.638Z,65.25
2022-09-10T07:17:37.015Z,65.31
2022-09-10T07:20:04.631Z,65.38
2022-09-10T07:22:43.712Z,64.86
2022-09-10T07:25:12.817Z,65.14
2022-09-10T07:27:57.957Z,64.75
2022-09-10T07:30:25.640Z,64.46
2022-09-10T07:32:52.804Z,63.87
2022-09-10T07:35:25.467Z,64.37
2022-09-10T07:37:54.264Z,64.03
2022-09-10T07:40:23.403Z,63.18
2022-09-10T07:42:52.450Z,62.92
2022-09-10T07:45:19.760Z,62.97
2022-09-10T07:47:48.618Z,63.60
2022-09-10T07:50:16.483Z,63.73
2022-09-10T07:52:44.475Z,63.49
2022-09-10T07:55:11.517Z,62.95
2022-09-10T07:57:40.535Z,63.16
2022-09-10T08:00:16.705Z,63.15
2022-09-10T08:02:46.976Z,62.80
2022-09-10T08:05:18.552Z,62.89
2022-09-10T08:07:46.608Z,62.14
2022-09-10T08:10:13.553Z,62.30
2022-09-10T08:12:41.975Z,62.61
2022-09-10T08:15:10.809Z,62.20
2022-09-10T08:17:40.051Z,62.30
2022-09-10T08:20:09.850Z,62.14
2022-09-10T08:22:38.633Z,62.04
2022-09-10T08:25:06.343Z,61.83
2022-09-10T08:27:35.134Z,61.56
2022-09-10T08:30:05.668Z,61.40
2022-09-10T08:32:35.834Z,60.82
2022-09-10T08:35:04.945Z,61.10
2022-09-10T08:37:33.378Z,61.04
2022-09-10T08:40:00.364Z,60.88
2022-09-10T08:42:39.946Z,60.46
2022-09-10T08:45:17.424Z,60.08
2022-09-10T08:47:57.150Z,60.26
2022-09-10T08:50:49.707Z,60.19
2022-09-10T08:53:44.232Z,60.01
2022-09-10T08:56:21.494Z,60.18
2022-09-10T08:59:00.023Z,59.42
2022-09-10T09:01:45.768Z,58.77
2022-09-10T09:04:39.651Z,59.00
2022-09-10T09:07:15.812Z,59.00
2022-09-10T09:09:51.469Z,59.02
2022-09-10T09:12:36.177Z,59.10
2022-09-10T09:15:25.560Z,59.10
2022-09-10T09:18:15.460Z,59.18
2022-09-10T09:20:52.560Z,58.61
2022-09-10T09:23:23.619Z,58.21
2022-09-10T09:26:04.689Z,57.96
2022-09-10T09:28:49.409Z,57.88
2022-09-10T09:31:26.280Z,57.86
2022-09-10T09:34:05.891Z,57.67
2022-09-10T09:36:42.433Z,57.61
2022-09-10T09:39:42.642Z,57.74
2022-09-10T09:42:24.779Z,57.14
2022-09-10T09:45:32.425Z,56.99
2022-09-10T09:47:59.785Z,55.91
2022-09-10T09:50:30.032Z,56.22
2022-09-10T09:52:57.278Z,56.74
2022-09-10T09:55:38.872Z,55.69
2022-09-10T09:58:26.833Z,55.59
2022-09-10T10:01:09.740Z,53.85
2022-09-10T10:03:58.558Z,53.04
2022-09-10T10:06:34.671Z,53.02
2022-09-10T10:09:22.927Z,52.53
2022-09-10T10:11:58.293Z,52.98
2022-09-10T10:14:41.530Z,52.92
2022-09-10T10:17:30.220Z,53.08
2022-09-10T10:20:14.400Z,52.77
2022-09-10T10:22:44.069Z,52.80
2022-09-10T10:25:38.364Z,51.99
2022-09-10T10:28:31.871Z,52.06
2022-09-10T10:31:01.084Z,52.23
2022-09-10T10:33:31.515Z,52.75
2022-09-10T10:36:19.631Z,51.23
2022-09-10T10:39:47.605Z,51.68
2022-09-10T10:42:45.767Z,50.77
2022-09-10T10:45:45.963Z,50.46
2022-09-10T10:48:33.903Z,50.29
2022-09-10T10:51:15.040Z,50.21
2022-09-10T10:54:29.509Z,50.66
2022-09-10T10:57:30.495Z,51.16
2022-09-10T11:00:12.878Z,50.89
2022-09-10T11:03:15.924Z,51.29
2022-09-10T11:05:48.302Z,51.62
2022-09-10T11:08:29.996Z,51.19
2022-09-10T11:11:13.789Z,51.44
2022-09-10T11:14:25.208Z,51.39
2022-09-10T11:17:05.628Z,51.45
2022-09-10T11:19:43.093Z,51.50
2022-09-10T11:22:22.872Z,51.09
2022-09-10T11:25:00.504Z,51.60
2022-09-10T11:27:37.648Z,51.75
2022-09-10T11:30:10.563Z,52.11
2022-09-10T11:33:05.567Z,51.49
2022-09-10T11:35:44.607Z,51.47
2022-09-10T11:38:36.812Z,51.21
2022-09-10T11:41:22.306Z,51.44
2022-09-10T11:44:15.472Z,51.24
2022-09-10T11:46:58.204Z,51.37
2022-09-10T11:49:39.336Z,51.35
2022-09-10T11:52:06.217Z,51.43
2022-09-10T11:54:35.736Z,52.32
2022-09-10T11:57:40.244Z,51.73
2022-09-10T12:00:18.394Z,52.03
2022-09-10T12:03:30.736Z,51.62
2022-09-10T12:06:22.269Z,51.40
2022-09-10T12:09:09.340Z,50.08
2022-09-10T12:12:09.076Z,50.27
2022-09-10T12:14:39.942Z,49.85
2022-09-10T12:17:29.946Z,49.78
2022-09-10T12:19:59.001Z,50.19
2022-09-10T12:22:31.769Z,50.92
2022-09-10T12:25:28.338Z,50.30
2022-09-10T12:28:01.526Z,49.49
2022-09-10T12:30:29.126Z,49.54
2022-09-10T12:33:01.870Z,49.46
2022-09-10T12:35:45.976Z,49.75
2022-09-10T12:39:09.179Z,49.21
2022-09-10T12:41:36.108Z,50.04
2022-09-10T12:44:34.407Z,50.17
2022-09-10T12:47:16.469Z,49.24
2022-09-10T12:49:49.506Z,48.76
2022-09-10T12:52:40.732Z,48.74
2022-09-10T12:55:48.910Z,47.99
2022-09-10T12:58:58.961Z,48.85
2022-09-10T13:01:46.376Z,48.25
2022-09-10T13:04:37.201Z,47.64
2022-09-10T13:07:25.118Z,47.89
2022-09-10T13:10:14.943Z,47.55
2022-09-10T13:12:45.052Z,47.34
2022-09-10T13:15:24.053Z,47.08
2022-09-10T13:17:51.406Z,48.02
2022-09-10T13:20:21.207Z,47.74
2022-09-10T13:23:10.108Z,48.15
2022-09-10T13:25:45.881Z,48.34
2022-09-10T13:28:31.335Z,47.83
2022-09-10T13:31:09.103Z,48.00
2022-09-10T13:34:14.100Z,48.96
2022-09-10T13:37:17.415Z,48.65
2022-09-10T13:40:08.851Z,48.72
2022-09-10T13:43:07.645Z,48.57
2022-09-10T13:45:42.052Z,48.96
2022-09-10T13:48:27.514Z,48.74
2022-09-10T13:51:11.162Z,48.80
2022-09-10T13:53:43.818Z,48.67
2022-09-10T13:56:21.564Z,48.91
2022-09-10T13:58:51.597Z,48.28
2022-09-10T14:01:18.610Z,48.98
2022-09-10T14:03:45.559Z,48.41
2022-09-10T14:06:18.296Z,48.56
2022-09-10T14:09:04.762Z,48.12
2022-09-10T14:11:41.304Z,48.23
2022-09-10T14:14:19.234Z,48.59
2022-09-10T14:16:52.623Z,48.67
2022-09-10T14:19:26.384Z,47.80
2022-09-10T14:21:55.719Z,47.89
2022-09-10T14:24:59.764Z,48.17
2022-09-10T14:27:30.989Z,48.65
2022-09-10T14:30:25.924Z,49.09
2022-09-10T14:32:53.219Z,48.76
2022-09-10T14:35:37.113Z,49.49
2022-09-10T14:38:26.470Z,48.53
2022-09-10T14:41:08.465Z,48.97
2022-09-10T14:43:38.976Z,48.73
2022-09-10T14:46:08.259Z,48.27
2022-09-10T14:48:39.452Z,47.61
2022-09-10T14:51:21.946Z,47.55
2022-09-10T14:53:56.984Z,48.23
2022-09-10T14:56:37.983Z,48.45
2022-09-10T14:59:36.339Z,48.38
2022-09-10T15:02:15.530Z,48.85
2022-09-10T15:04:42.453Z,49.06
2022-09-10T15:07:10.140Z,49.13
2022-09-10T15:09:37.012Z,49.67
2022-09-10T15:12:24.336Z,49.25
2022-09-10T15:14:52.088Z,50.17
2022-09-10T15:17:19.688Z,49.38
2022-09-10T15:19:47.242Z,49.76
2022-09-10T15:22:23.669Z,49.55
2022-09-10T15:25:08.987Z,49.00
2022-09-10T15:27:36.335Z,49.44
2022-09-10T15:30:03.479Z,48.73
2022-09-10T15:32:30.765Z,48.99
2022-09-10T15:34:57.646Z,49.09
2022-09-10T15:37:24.578Z,48.73
2022-09-10T15:39:51.669Z,48.91
2022-09-10T15:42:18.659Z,49.18
2022-09-10T15:44:45.532Z,49.41
2022-09-10T15:47:12.415Z,49.48
2022-09-10T15:49:39.319Z,49.56
2022-09-10T15:52:06.224Z,49.48
2022-09-10T15:54:33.895Z,49.63
2022-09-10T15:57:01.204Z,48.60
2022-09-10T15:59:28.526Z,49.29
2022-09-10T16:01:55.459Z,49.37
2022-09-10T16:04:22.947Z,49.69
2022-09-10T16:06:49.871Z,50.27
2022-09-10T16:09:16.943Z,50.97
2022-09-10T16:11:44.457Z,51.61
2022-09-10T16:14:14.679Z,51.93
2022-09-10T16:16:41.883Z,52.60
2022-09-10T16:19:12.059Z,53.30
2022-09-10T16:21:39.296Z,53.93
2022-09-10T16:24:06.962Z,54.47
2022-09-10T16:26:41.605Z,54.45
2022-09-10T16:29:15.907Z,54.60
2022-09-10T16:31:45.489Z,54.98
2022-09-10T16:34:19.047Z,55.69
2022-09-10T16:36:51.508Z,55.50
2022-09-10T16:39:19.867Z,55.15
2022-09-10T16:41:49.088Z,55.84
2022-09-10T16:44:17.779Z,55.54
2022-09-10T16:46:46.552Z,55.93
2022-09-10T16:49:15.064Z,55.89
2022-09-10T16:51:44.196Z,56.06
2022-09-10T16:54:13.538Z,56.03
2022-09-10T16:56:43.933Z,55.85
2022-09-10T16:59:15.734Z,56.18
2022-09-10T17:01:48.407Z,56.26
2022-09-10T17:04:20.646Z,56.88
2022-09-10T17:06:50.780Z,57.13
2022-09-10T17:09:17.963Z,57.55
2022-09-10T17:11:44.852Z,57.70
2022-09-10T17:14:12.368Z,57.79
2022-09-10T17:16:41.564Z,58.14
2022-09-10T17:19:23.231Z,58.64
2022-09-10T17:21:53.437Z,58.96
2022-09-10T17:24:23.401Z,59.28
2022-09-10T17:26:51.055Z,59.40
2022-09-10T17:29:22.237Z,59.50
2022-09-10T17:31:52.029Z,59.69
2022-09-10T17:34:21.341Z,59.83
2022-09-10T17:36:49.081Z,59.53
2022-09-10T17:39:16.890Z,59.60
2022-09-10T17:41:44.065Z,59.55
2022-09-10T17:44:12.148Z,59.37
2022-09-10T17:46:39.443Z,59.29
2022-09-10T17:49:06.688Z,59.62
2022-09-10T17:51:34.962Z,59.68
2022-09-10T17:54:03.270Z,59.92
2022-09-10T17:56:31.300Z,59.91
2022-09-10T17:59:01.675Z,59.88
2022-09-10T18:01:38.828Z,60.19
2022-09-10T18:04:12.660Z,59.77
2022-09-10T18:06:40.747Z,59.82
2022-09-10T18:09:08.660Z,59.92
2022-09-10T18:11:39.528Z,60.17
2022-09-10T18:14:07.209Z,59.81
2022-09-10T18:16:36.285Z,59.97
2022-09-10T18:19:13.728Z,60.27
2022-09-10T18:21:42.049Z,60.34
2022-09-10T18:24:19.022Z,60.22
2022-09-10T18:26:48.288Z,60.53
2022-09-10T18:29:27.740Z,60.46
2022-09-10T18:31:57.935Z,60.51
2022-09-10T18:34:28.603Z,60.95
2022-09-10T18:36:58.570Z,61.07
2022-09-10T18:39:27.629Z,60.65
2022-09-10T18:41:55.086Z,61.14
2022-09-10T18:44:27.205Z,61.24
2022-09-10T18:46:54.466Z,61.32
2022-09-10T18:49:24.379Z,61.34
2022-09-10T18:51:52.408Z,61.08
2022-09-10T18:54:21.760Z,61.18
2022-09-10T18:56:49.585Z,61.35
2022-09-10T18:59:20.221Z,61.02
2022-09-10T19:01:49.337Z,60.99
2022-09-10T19:04:20.128Z,61.52
2022-09-10T19:06:48.529Z,61.21
2022-09-10T19:09:19.546Z,61.88
2022-09-10T19:11:49.609Z,62.07
2022-09-10T19:14:29.866Z,62.04
2022-09-10T19:16:58.637Z,62.54
2022-09-10T19:19:31.730Z,62.82
2022-09-10T19:22:03.317Z,62.28
2022-09-10T19:24:53.362Z,62.48
2022-09-10T19:27:17.658Z,62.19
2022-09-10T19:29:47.157Z,62.34
2022-09-10T19:32:15.140Z,61.89
2022-09-10T19:34:42.691Z,62.03
2022-09-10T19:37:09.770Z,62.27
2022-09-10T19:39:36.739Z,61.87
2022-09-10T19:42:04.178Z,62.11
2022-09-10T19:44:31.047Z,62.36
2022-09-10T19:46:58.674Z,62.24
2022-09-10T19:49:25.590Z,61.90
2022-09-10T19:51:52.506Z,62.24
2022-09-10T19:54:19.422Z,62.29
2022-09-10T19:56:46.309Z,62.54
2022-09-10T19:59:14.465Z,62.31
2022-09-10T20:01:43.617Z,62.59
2022-09-10T20:04:12.624Z,63.09
2022-09-10T20:06:40.298Z,63.38
2022-09-10T20:09:09.791Z,63.25
2022-09-10T20:11:37.186Z,63.93
2022-09-10T20:14:10.729Z,64.28
2022-09-10T20:16:42.260Z,64.43
2022-09-10T20:19:11.565Z,64.35
2022-09-10T20:21:38.526Z,64.93
2022-09-10T20:24:07.285Z,65.10
2022-09-10T20:26:43.893Z,64.94
2022-09-10T20:29:17.834Z,65.10
2022-09-10T20:31:46.213Z,64.79
2022-09-10T20:34:19.723Z,64.99
2022-09-10T20:36:50.252Z,64.60
2022-09-10T20:39:19.774Z,65.11
2022-09-10T20:41:46.997Z,65.26
2022-09-10T20:44:16.508Z,65.79
2022-09-10T20:46:44.498Z,65.68
2022-09-10T20:49:13.810Z,65.92
2022-09-10T20:51:41.364Z,65.75
2022-09-10T20:54:13.907Z,65.03
2022-09-10T20:56:41.424Z,64.94
2022-09-10T20:59:08.295Z,64.50
2022-09-10T21:01:35.223Z,64.29
2022-09-10T21:04:04.103Z,64.53
2022-09-10T21:06:33.258Z,64.25
2022-09-10T21:09:02.063Z,64.06
2022-09-10T21:11:32.418Z,64.35
2022-09-10T21:14:01.904Z,64.45
2022-09-10T21:16:37.981Z,64.82
2022-09-10T21:19:09.396Z,64.51
2022-09-10T21:21:39.330Z,64.59
2022-09-10T21:24:16.640Z,64.75
2022-09-10T21:26:44.396Z,64.76
2022-09-10T21:29:17.768Z,65.24
2022-09-10T21:31:45.563Z,65.08
2022-09-10T21:34:13.679Z,65.48
2022-09-10T21:36:41.882Z,65.74
2022-09-10T21:39:14.368Z,65.81
2022-09-10T21:41:47.609Z,66.61
2022-09-10T21:44:18.394Z,66.08
2022-09-10T21:46:46.677Z,66.11
2022-09-10T21:49:14.321Z,66.23
2022-09-10T21:51:41.912Z,66.43
2022-09-10T21:54:20.435Z,66.22
2022-09-10T21:56:48.688Z,66.78
2022-09-10T21:59:16.121Z,66.83
2022-09-10T22:01:45.410Z,66.95
2022-09-10T22:04:13.727Z,66.62
2022-09-10T22:06:40.858Z,67.01
2022-09-10T22:09:14.859Z,66.99
2022-09-10T22:11:50.157Z,67.42
2022-09-10T22:14:20.883Z,67.49
2022-09-10T22:16:48.251Z,67.78
2022-09-10T22:19:18.895Z,67.69
2022-09-10T22:21:47.080Z,67.91
2022-09-10T22:24:19.226Z,68.45
2022-09-10T22:26:47.341Z,68.82
2022-09-10T22:29:19.997Z,68.89
2022-09-10T22:31:47.918Z,69.39
2022-09-10T22:34:16.536Z,69.57
2022-09-10T22:36:46.137Z,69.81
2022-09-10T22:39:21.288Z,69.78
2022-09-10T22:41:50.078Z,70.11
2022-09-10T22:44:18.044Z,70.53
2022-09-10T22:46:44.967Z,70.48
2022-09-10T22:49:11.900Z,70.64
2022-09-10T22:51:43.336Z,70.91
2022-09-10T22:54:11.299Z,71.37
2022-09-10T22:56:38.372Z,71.54
2022-09-10T22:59:06.571Z,70.84
2022-09-10T23:01:37.558Z,70.78
2022-09-10T23:04:06.327Z,70.99
2022-09-10T23:06:35.479Z,70.95
2022-09-10T23:09:11.088Z,71.05
2022-09-10T23:11:39.196Z,71.60
2022-09-10T23:14:10.785Z,72.00
2022-09-10T23:16:41.901Z,71.88
2022-09-10T23:19:15.653Z,71.97
2022-09-10T23:21:46.483Z,71.67
2022-09-10T23:24:17.166Z,72.19
2022-09-10T23:26:44.782Z,71.74
2022-09-10T23:29:12.523Z,72.33
2022-09-10T23:31:40.935Z,72.24
2022-09-10T23:34:12.995Z,71.83
2022-09-10T23:36:42.822Z,72.12
2022-09-10T23:39:14.823Z,72.09
2022-09-10T23:41:42.202Z,71.77
2022-09-10T23:44:09.855Z,72.02
2022-09-10T23:46:37.567Z,72.10
2022-09-10T23:49:05.523Z,71.63
2022-09-10T23:51:32.383Z,71.89
2022-09-10T23:53:59.569Z,71.30
2022-09-10T23:56:28.331Z,71.08
2022-09-10T23:58:56.416Z,70.59
